createdAt,value
2023-05-19T00:00:04.058Z,9.20
2023-05-19T00:05:15.330Z,9.10
2023-05-19T00:10:18.368Z,9.00
2023-05-19T00:15:20.796Z,9.00
2023-05-19T00:20:22.908Z,8.90
2023-05-19T00:25:25.093Z,8.80
2023-05-19T00:30:27.550Z,8.80
2023-05-19T00:35:29.710Z,8.80
2023-05-19T00:40:36.187Z,8.70
2023-05-19T00:45:38.316Z,8.60
2023-05-19T00:50:41.495Z,8.60
2023-05-19T00:55:43.941Z,8.40
2023-05-19T01:00:46.885Z,8.30
2023-05-19T01:05:50.042Z,8.30
2023-05-19T01:10:52.091Z,8.30
2023-05-19T01:16:12.668Z,8.30
2023-05-19T01:21:38.843Z,8.30
2023-05-19T01:27:07.849Z,8.20
2023-05-19T01:32:10.942Z,8.20
2023-05-19T01:37:14.963Z,8.20
2023-05-19T01:42:18.086Z,8.30
2023-05-19T01:47:20.214Z,8.20
2023-05-19T01:52:22.278Z,8.30
2023-05-19T01:57:43.161Z,8.20
2023-05-19T02:03:07.787Z,8.20
2023-05-19T02:08:17.731Z,8.30
2023-05-19T02:13:24.241Z,8.30
2023-05-19T02:18:30.085Z,8.30
2023-05-19T02:23:32.242Z,8.20
2023-05-19T02:28:35.387Z,8.10
2023-05-19T02:33:37.695Z,8.10
2023-05-19T02:38:39.770Z,8.00
2023-05-19T02:43:41.877Z,7.90
2023-05-19T02:48:44.106Z,7.80
2023-05-19T02:53:46.387Z,7.80
2023-05-19T02:58:48.532Z,7.60
2023-05-19T03:03:51.269Z,7.60
2023-05-19T03:08:53.390Z,7.60
2023-05-19T03:13:55.985Z,7.60
2023-05-19T03:18:58.383Z,7.60
2023-05-19T03:24:03.902Z,7.70
2023-05-19T03:29:06.154Z,7.70
2023-05-19T03:34:10.924Z,7.60
2023-05-19T03:39:13.242Z,7.60
2023-05-19T03:44:15.773Z,7.60
2023-05-19T03:49:18.890Z,7.60
2023-05-19T03:54:33.143Z,7.50
2023-05-19T03:59:37.310Z,7.50
2023-05-19T04:04:40.195Z,7.60
2023-05-19T04:09:42.488Z,7.60
2023-05-19T04:14:44.632Z,7.50
2023-05-19T04:19:46.853Z,7.50
2023-05-19T04:24:50.631Z,7.50
2023-05-19T04:29:53.395Z,7.50
2023-05-19T04:34:55.840Z,7.50
2023-05-19T04:40:01.058Z,7.60
2023-05-19T04:45:03.472Z,7.70
2023-05-19T04:50:11.241Z,7.80
2023-05-19T04:55:13.534Z,7.90
2023-05-19T05:00:17.133Z,8.10
2023-05-19T05:05:30.042Z,8.20
2023-05-19T05:10:32.383Z,8.20
2023-05-19T05:15:35.827Z,8.30
2023-05-19T05:20:39.017Z,8.50
2023-05-19T05:25:42.221Z,8.70
2023-05-19T05:30:45.176Z,8.80
2023-05-19T05:35:50.675Z,9.10
2023-05-19T05:40:53.263Z,9.20
2023-05-19T05:45:55.765Z,9.30
2023-05-19T05:50:59.369Z,9.30
2023-05-19T05:56:05.284Z,9.40
2023-05-19T06:01:17.934Z,9.40
2023-05-19T06:06:20.533Z,9.60
2023-05-19T06:11:23.188Z,9.70
2023-05-19T06:16:26.603Z,9.90
2023-05-19T06:21:29.219Z,10.10
2023-05-19T06:26:34.552Z,10.30
2023-05-19T06:31:36.911Z,10.40
2023-05-19T06:36:45.607Z,10.50
2023-05-19T06:41:48.406Z,10.60
2023-05-19T06:47:10.559Z,10.70
2023-05-19T06:52:13.557Z,10.90
2023-05-19T06:57:16.143Z,11.10
2023-05-19T07:02:18.372Z,11.20
2023-05-19T07:07:20.860Z,11.40
2023-05-19T07:12:23.199Z,11.60
2023-05-19T07:17:26.506Z,11.70
2023-05-19T07:22:28.968Z,11.80
2023-05-19T07:27:31.352Z,12.10
2023-05-19T07:32:33.628Z,12.20
2023-05-19T07:37:36.208Z,12.40
2023-05-19T07:42:38.344Z,12.60
2023-05-19T07:47:40.712Z,12.50
2023-05-19T07:52:42.863Z,12.80
2023-05-19T07:57:45.159Z,13.10
2023-05-19T08:02:47.470Z,13.30
2023-05-19T08:07:49.819Z,13.60
2023-05-19T08:12:52.097Z,13.80
2023-05-19T08:17:54.188Z,14.00
2023-05-19T08:22:56.349Z,14.20
2023-05-19T08:27:58.433Z,14.40
2023-05-19T08:33:00.708Z,14.30
2023-05-19T08:38:02.812Z,14.50
2023-05-19T08:43:05.021Z,14.60
2023-05-19T08:48:08.199Z,14.90
2023-05-19T08:53:33.069Z,15.00
2023-05-19T08:58:39.538Z,15.40
2023-05-19T09:03:43.385Z,15.80
2023-05-19T09:08:47.195Z,16.00
2023-05-19T09:13:50.123Z,16.40
2023-05-19T09:18:57.038Z,16.90
2023-05-19T09:24:06.597Z,17.30
2023-05-19T09:29:16.632Z,17.50
2023-05-19T09:34:19.609Z,18.20
2023-05-19T09:39:23.485Z,21.10
2023-05-19T09:44:29.881Z,24.30
2023-05-19T09:49:33.078Z,25.90
2023-05-19T09:54:35.459Z,27.60
2023-05-19T09:59:41.234Z,28.60
2023-05-19T10:04:44.064Z,29.50
2023-05-19T10:09:47.079Z,30.30
2023-05-19T10:14:49.614Z,31.70
2023-05-19T10:19:54.883Z,32.60
2023-05-19T10:24:57.063Z,28.90
2023-05-19T10:30:04.904Z,28.10
2023-05-19T10:35:10.446Z,27.40
2023-05-19T10:40:37.249Z,27.30
2023-05-19T10:45:51.998Z,29.70
2023-05-19T10:50:55.472Z,30.30
2023-05-19T10:55:59.263Z,31.40
2023-05-19T11:01:01.815Z,32.60
2023-05-19T11:06:19.335Z,33.20
2023-05-19T11:11:23.371Z,33.00
2023-05-19T11:16:33.291Z,33.10
2023-05-19T11:21:47.186Z,32.40
2023-05-19T11:26:49.339Z,30.00
2023-05-19T11:31:52.349Z,30.40
2023-05-19T11:36:54.636Z,32.10
2023-05-19T11:41:56.694Z,32.50
2023-05-19T11:47:02.303Z,31.70
2023-05-19T11:52:05.209Z,32.00
2023-05-19T11:57:09.162Z,28.80
2023-05-19T12:02:17.152Z,26.80
2023-05-19T12:07:23.093Z,28.40
2023-05-19T12:12:25.352Z,29.70
2023-05-19T12:17:28.205Z,30.50
2023-05-19T12:22:30.512Z,30.90
2023-05-19T12:27:38.660Z,30.80
2023-05-19T12:32:41.184Z,30.90
2023-05-19T12:37:43.330Z,30.90
2023-05-19T12:42:46.071Z,31.30
2023-05-19T12:47:49.500Z,31.10
2023-05-19T12:52:52.340Z,30.70
2023-05-19T12:57:57.541Z,27.90
2023-05-19T13:03:06.241Z,26.60
2023-05-19T13:08:10.536Z,27.10
2023-05-19T13:13:13.591Z,27.50
2023-05-19T13:18:36.420Z,27.70
2023-05-19T13:23:38.501Z,27.70
2023-05-19T13:28:40.577Z,26.50
2023-05-19T13:33:42.724Z,26.30
2023-05-19T13:38:44.869Z,27.30
2023-05-19T13:43:46.922Z,28.20
2023-05-19T13:48:49.026Z,26.90
2023-05-19T13:53:51.263Z,26.80
2023-05-19T13:58:54.891Z,26.80
2023-05-19T14:03:57.376Z,27.10
2023-05-19T14:08:59.700Z,28.20
2023-05-19T14:14:03.852Z,29.80
2023-05-19T14:19:05.964Z,31.10
2023-05-19T14:24:08.347Z,31.80
2023-05-19T14:29:10.473Z,31.10
2023-05-19T14:34:12.701Z,32.20
2023-05-19T14:39:15.103Z,32.30
2023-05-19T14:44:17.326Z,32.20
2023-05-19T14:49:19.471Z,32.90
2023-05-19T14:54:21.539Z,32.70
2023-05-19T14:59:23.650Z,30.30
2023-05-19T15:04:26.020Z,30.50
2023-05-19T15:09:28.138Z,32.50
2023-05-19T15:14:31.172Z,34.40
2023-05-19T15:19:33.583Z,36.50
2023-05-19T15:24:35.879Z,34.40
2023-05-19T15:29:37.981Z,30.80
2023-05-19T15:34:40.338Z,28.20
2023-05-19T15:39:42.469Z,26.60
2023-05-19T15:44:46.702Z,26.10
2023-05-19T15:49:48.807Z,30.30
2023-05-19T15:54:50.922Z,32.60
2023-05-19T15:59:52.988Z,30.40
2023-05-19T16:04:55.057Z,27.50
2023-05-19T16:09:57.202Z,29.40
2023-05-19T16:14:59.666Z,33.40
2023-05-19T16:20:01.877Z,36.70
2023-05-19T16:25:04.320Z,38.10
2023-05-19T16:30:07.424Z,37.10
2023-05-19T16:35:09.881Z,32.60
2023-05-19T16:40:12.301Z,30.70
2023-05-19T16:45:17.531Z,33.10
2023-05-19T16:50:19.632Z,32.50
2023-05-19T16:55:22.886Z,29.70
2023-05-19T17:00:25.167Z,27.00
2023-05-19T17:05:27.964Z,25.00
2023-05-19T17:10:30.040Z,23.70
2023-05-19T17:15:33.517Z,22.60
2023-05-19T17:20:35.864Z,21.90
2023-05-19T17:25:38.042Z,21.30
2023-05-19T17:30:41.508Z,21.10
2023-05-19T17:35:43.670Z,23.70
2023-05-19T17:40:45.835Z,26.80
2023-05-19T17:45:47.868Z,28.10
2023-05-19T17:50:49.908Z,28.30
2023-05-19T17:55:57.364Z,28.50
2023-05-19T18:00:59.687Z,28.10
2023-05-19T18:06:02.264Z,27.70
2023-05-19T18:11:04.998Z,26.70
2023-05-19T18:16:07.396Z,24.60
2023-05-19T18:21:14.406Z,23.00
2023-05-19T18:26:16.548Z,21.90
2023-05-19T18:31:20.069Z,21.10
2023-05-19T18:36:23.530Z,20.50
2023-05-19T18:41:26.343Z,20.00
2023-05-19T18:46:28.568Z,19.50
2023-05-19T18:51:33.137Z,19.10
2023-05-19T18:56:35.677Z,18.80
2023-05-19T19:01:38.010Z,18.30
2023-05-19T19:06:41.376Z,18.00
2023-05-19T19:11:44.290Z,17.70
2023-05-19T19:16:46.811Z,17.40
2023-05-19T19:21:48.921Z,17.00
2023-05-19T19:26:51.051Z,16.70
2023-05-19T19:31:53.123Z,16.30
2023-05-19T19:36:55.162Z,16.10
2023-05-19T19:41:57.198Z,16.00
2023-05-19T19:46:59.631Z,15.80
2023-05-19T19:52:01.708Z,15.70
2023-05-19T19:57:04.171Z,15.60
2023-05-19T20:02:06.903Z,15.30
2023-05-19T20:07:09.061Z,15.10
2023-05-19T20:12:11.224Z,15.00
2023-05-19T20:17:13.583Z,14.90
2023-05-19T20:22:15.705Z,14.80
2023-05-19T20:27:17.773Z,14.80
2023-05-19T20:32:19.793Z,14.60
2023-05-19T20:37:22.563Z,14.50
2023-05-19T20:42:24.662Z,14.40
2023-05-19T20:47:29.179Z,14.50
2023-05-19T20:52:33.169Z,14.40
2023-05-19T20:57:35.331Z,14.30
2023-05-19T21:02:37.871Z,14.20
2023-05-19T21:07:40.157Z,14.20
2023-05-19T21:12:42.273Z,14.10
2023-05-19T21:17:44.627Z,14.00
2023-05-19T21:22:46.742Z,13.90
2023-05-19T21:27:51.055Z,13.90
2023-05-19T21:32:53.519Z,13.90
2023-05-19T21:37:55.981Z,13.80
2023-05-19T21:42:58.113Z,13.70
2023-05-19T21:48:00.239Z,13.70
2023-05-19T21:53:02.890Z,13.70
2023-05-19T21:58:05.075Z,13.70
2023-05-19T22:03:07.484Z,13.70
2023-05-19T22:08:09.686Z,13.70
2023-05-19T22:13:11.875Z,13.70
2023-05-19T22:18:14.180Z,13.60
2023-05-19T22:23:16.391Z,13.60
2023-05-19T22:28:18.624Z,13.60
2023-05-19T22:33:20.781Z,13.50
2023-05-19T22:38:22.851Z,13.50
2023-05-19T22:43:24.972Z,13.60
2023-05-19T22:48:27.144Z,13.60
2023-05-19T22:53:29.257Z,13.60
2023-05-19T22:58:31.384Z,13.50
2023-05-19T23:03:33.478Z,13.50
2023-05-19T23:08:35.764Z,13.50
2023-05-19T23:13:37.849Z,13.30
2023-05-19T23:18:40.206Z,13.20
2023-05-19T23:23:42.383Z,13.20
2023-05-19T23:28:45.117Z,13.20
2023-05-19T23:33:47.304Z,13.10
2023-05-19T23:38:49.425Z,13.10
2023-05-19T23:43:51.792Z,13.20
2023-05-19T23:48:53.879Z,13.20
2023-05-19T23:53:55.986Z,13.10
2023-05-19T23:58:58.176Z,13.00
